createdAt,value
2022-12-08T00:01:47.482Z,4.97
2022-12-08T00:04:20.555Z,4.90
2022-12-08T00:07:12.231Z,5.07
2022-12-08T00:09:45.225Z,5.43
2022-12-08T00:12:18.172Z,5.27
2022-12-08T00:14:51.147Z,4.37
2022-12-08T00:17:24.071Z,4.83
2022-12-08T00:19:56.967Z,4.53
2022-12-08T00:22:31.965Z,6.38
2022-12-08T00:25:05.355Z,4.47
2022-12-08T00:27:38.585Z,4.80
2022-12-08T00:30:11.698Z,5.03
2022-12-08T00:32:44.635Z,4.97
2022-12-08T00:35:17.555Z,4.33
2022-12-08T00:37:50.564Z,4.63
2022-12-08T00:40:23.545Z,5.88
2022-12-08T00:42:56.508Z,4.97
2022-12-08T00:45:29.600Z,5.30
2022-12-08T00:48:02.625Z,4.53
2022-12-08T00:50:35.632Z,4.60
2022-12-08T00:53:08.544Z,5.57
2022-12-08T00:55:41.471Z,4.97
2022-12-08T00:58:14.396Z,5.10
2022-12-08T01:00:47.412Z,3.77
2022-12-08T01:03:20.560Z,4.13
2022-12-08T01:05:53.495Z,4.50
2022-12-08T01:08:26.518Z,4.80
2022-12-08T01:11:06.316Z,4.50
2022-12-08T01:13:39.498Z,4.80
2022-12-08T01:16:32.725Z,4.23
2022-12-08T01:19:05.708Z,4.27
2022-12-08T01:21:38.660Z,3.97
2022-12-08T01:24:15.857Z,4.00
2022-12-08T01:26:49.358Z,3.67
2022-12-08T01:29:22.311Z,3.80
2022-12-08T01:31:55.216Z,3.97
2022-12-08T01:34:28.137Z,3.77
2022-12-08T01:37:01.194Z,3.70
2022-12-08T01:39:34.114Z,4.27
2022-12-08T01:42:07.197Z,3.70
2022-12-08T01:44:40.136Z,4.40
2022-12-08T01:47:13.141Z,3.70
2022-12-08T01:49:46.080Z,3.73
2022-12-08T01:52:22.909Z,3.80
2022-12-08T01:55:02.763Z,3.77
2022-12-08T02:03:30.027Z,4.03
2022-12-08T02:06:04.019Z,4.23
2022-12-08T02:08:37.309Z,3.70
2022-12-08T02:11:11.378Z,3.90
2022-12-08T02:13:45.876Z,4.00
2022-12-08T02:16:28.075Z,3.77
2022-12-08T02:19:30.383Z,3.73
2022-12-08T02:22:09.269Z,3.90
2022-12-08T02:24:45.217Z,4.07
2022-12-08T02:27:18.066Z,3.87
2022-12-08T02:30:09.953Z,3.67
2022-12-08T02:33:01.751Z,3.00
2022-12-08T02:35:34.844Z,4.03
2022-12-08T02:38:26.620Z,3.63
2022-12-08T02:40:59.500Z,3.47
2022-12-08T02:43:38.519Z,3.63
2022-12-08T02:46:27.713Z,3.60
2022-12-08T02:49:00.962Z,3.90
2022-12-08T02:51:33.861Z,3.83
2022-12-08T02:54:06.970Z,3.73
2022-12-08T02:57:04.791Z,4.80
2022-12-08T02:59:46.849Z,4.03
2022-12-08T03:02:34.220Z,3.73
2022-12-08T03:05:14.368Z,3.63
2022-12-08T03:07:53.887Z,3.53
2022-12-08T03:10:36.133Z,3.67
2022-12-08T03:13:16.592Z,3.53
2022-12-08T03:15:51.090Z,4.20
2022-12-08T03:18:26.177Z,3.90
2022-12-08T03:20:59.967Z,4.53
2022-12-08T03:23:33.141Z,3.63
2022-12-08T03:26:12.822Z,4.20
2022-12-08T03:28:46.071Z,4.07
2022-12-08T03:31:19.400Z,4.23
2022-12-08T03:33:53.177Z,4.67
2022-12-08T03:36:26.479Z,4.43
2022-12-08T03:39:00.528Z,4.40
2022-12-08T03:41:33.441Z,4.50
2022-12-08T03:44:06.399Z,4.63
2022-12-08T03:46:39.396Z,4.60
2022-12-08T03:49:12.444Z,4.47
2022-12-08T03:51:45.363Z,4.80
2022-12-08T03:54:18.324Z,4.60
2022-12-08T03:56:51.265Z,4.90
2022-12-08T03:59:24.191Z,4.93
2022-12-08T04:01:57.186Z,5.20
2022-12-08T04:04:30.113Z,5.30
2022-12-08T04:07:03.050Z,5.10
2022-12-08T04:09:35.939Z,5.53
2022-12-08T04:12:09.376Z,4.67
2022-12-08T04:14:42.269Z,4.23
2022-12-08T04:17:15.158Z,5.70
2022-12-08T04:19:48.046Z,4.80
2022-12-08T04:22:20.969Z,4.90
2022-12-08T04:24:53.933Z,4.77
2022-12-08T04:27:26.951Z,4.70
2022-12-08T04:29:59.856Z,4.40
2022-12-08T04:32:32.786Z,4.87
2022-12-08T04:35:05.860Z,6.57
2022-12-08T04:37:38.808Z,5.00
2022-12-08T04:40:12.418Z,4.93
2022-12-08T04:42:45.397Z,4.70
2022-12-08T04:45:18.364Z,3.93
2022-12-08T04:47:51.295Z,4.57
2022-12-08T04:50:24.186Z,4.00
2022-12-08T04:52:57.133Z,4.80
2022-12-08T04:55:30.020Z,4.20
2022-12-08T04:58:02.988Z,5.07
2022-12-08T05:00:35.936Z,4.07
2022-12-08T05:03:09.094Z,4.60
2022-12-08T05:05:42.564Z,4.37
2022-12-08T05:08:15.609Z,4.80
2022-12-08T05:10:48.546Z,4.23
2022-12-08T05:13:21.524Z,4.97
2022-12-08T05:15:54.461Z,4.37
2022-12-08T05:18:27.423Z,5.23
2022-12-08T05:21:00.389Z,5.30
2022-12-08T05:23:33.768Z,4.67
2022-12-08T05:26:06.860Z,5.17
2022-12-08T05:28:41.957Z,4.80
2022-12-08T05:31:16.506Z,5.47
2022-12-08T05:33:50.446Z,4.70
2022-12-08T05:36:23.627Z,5.10
2022-12-08T05:38:59.719Z,4.87
2022-12-08T05:41:32.655Z,4.73
2022-12-08T05:44:06.055Z,5.53
2022-12-08T05:46:41.449Z,5.73
2022-12-08T05:49:34.744Z,5.37
2022-12-08T05:52:07.623Z,4.43
2022-12-08T05:54:40.591Z,5.07
2022-12-08T05:57:13.504Z,4.63
2022-12-08T05:59:46.425Z,5.17
2022-12-08T06:02:19.473Z,5.27
2022-12-08T06:05:03.057Z,4.60
2022-12-08T06:07:36.089Z,5.10
2022-12-08T06:10:09.369Z,5.50
2022-12-08T06:12:42.434Z,5.17
2022-12-08T06:15:15.457Z,5.63
2022-12-08T06:17:48.461Z,5.30
2022-12-08T06:20:21.509Z,4.60
2022-12-08T06:22:57.399Z,5.70
2022-12-08T06:25:30.275Z,4.90
2022-12-08T06:28:05.128Z,5.47
2022-12-08T06:30:38.320Z,5.47
2022-12-08T06:33:11.295Z,5.53
2022-12-08T06:35:44.216Z,5.20
2022-12-08T06:38:17.171Z,5.37
2022-12-08T06:40:57.174Z,5.47
2022-12-08T06:43:30.145Z,5.83
2022-12-08T06:46:05.619Z,5.23
2022-12-08T06:48:38.641Z,4.90
2022-12-08T06:51:11.549Z,6.20
2022-12-08T06:53:44.995Z,5.23
2022-12-08T06:56:19.906Z,5.57
2022-12-08T06:58:53.296Z,5.20
2022-12-08T07:01:26.400Z,6.13
2022-12-08T07:03:59.424Z,5.77
2022-12-08T07:06:32.344Z,5.07
2022-12-08T07:09:05.295Z,7.13
2022-12-08T07:11:38.941Z,6.63
2022-12-08T07:14:11.904Z,4.97
2022-12-08T07:16:44.878Z,5.53
2022-12-08T07:19:18.079Z,6.00
2022-12-08T07:21:51.072Z,5.37
2022-12-08T07:24:23.998Z,5.90
2022-12-08T07:26:56.908Z,5.10
2022-12-08T07:29:29.867Z,5.90
2022-12-08T07:32:02.808Z,5.13
2022-12-08T07:34:35.726Z,4.87
2022-12-08T07:37:08.625Z,5.57
2022-12-08T07:39:41.551Z,5.67
2022-12-08T07:42:14.471Z,5.20
2022-12-08T07:44:49.279Z,5.50
2022-12-08T07:47:22.235Z,5.63
2022-12-08T07:49:55.264Z,4.67
2022-12-08T07:52:28.400Z,4.43
2022-12-08T07:55:01.303Z,4.67
2022-12-08T07:57:34.260Z,5.10
2022-12-08T08:00:07.794Z,6.90
2022-12-08T08:02:44.631Z,5.00
2022-12-08T08:05:17.660Z,4.87
2022-12-08T08:07:50.599Z,4.63
2022-12-08T08:10:23.759Z,4.10
2022-12-08T08:12:59.529Z,4.80
2022-12-08T08:15:32.778Z,4.43
2022-12-08T08:18:05.813Z,5.03
2022-12-08T08:20:38.728Z,4.13
2022-12-08T08:23:12.778Z,4.70
2022-12-08T08:25:45.696Z,4.23
2022-12-08T08:28:18.879Z,5.10
2022-12-08T08:30:51.855Z,4.93
2022-12-08T08:33:25.924Z,4.60
2022-12-08T08:35:58.884Z,4.73
2022-12-08T08:38:31.744Z,5.07
2022-12-08T08:41:08.696Z,4.87
2022-12-08T08:43:41.623Z,4.23
2022-12-08T08:46:14.615Z,4.90
2022-12-08T08:48:47.522Z,4.93
2022-12-08T08:51:20.516Z,4.43
2022-12-08T08:53:53.388Z,4.00
2022-12-08T08:56:26.372Z,4.13
2022-12-08T08:58:59.242Z,4.00
2022-12-08T09:01:32.230Z,4.37
2022-12-08T09:04:05.279Z,3.80
2022-12-08T09:06:38.342Z,3.80
2022-12-08T09:09:11.568Z,4.17
2022-12-08T09:11:44.710Z,4.10
2022-12-08T09:14:17.715Z,4.20
2022-12-08T09:16:50.664Z,4.50
2022-12-08T09:19:23.680Z,3.93
2022-12-08T09:21:56.622Z,4.33
2022-12-08T09:24:29.524Z,4.60
2022-12-08T09:27:02.409Z,3.90
2022-12-08T09:29:36.333Z,4.13
2022-12-08T09:32:10.331Z,4.70
2022-12-08T09:34:46.443Z,3.53
2022-12-08T09:37:23.433Z,4.37
2022-12-08T09:39:56.319Z,4.07
2022-12-08T09:42:49.457Z,3.83
2022-12-08T09:45:23.731Z,3.60
2022-12-08T09:47:59.380Z,4.57
2022-12-08T09:50:40.159Z,3.97
2022-12-08T09:53:15.432Z,3.87
2022-12-08T09:55:59.502Z,3.80
2022-12-08T09:58:52.458Z,3.87
2022-12-08T10:01:28.376Z,4.00
2022-12-08T10:04:02.093Z,4.10
2022-12-08T10:06:53.759Z,3.93
2022-12-08T10:09:37.032Z,3.73
2022-12-08T10:12:20.343Z,3.43
2022-12-08T10:15:10.595Z,3.47
2022-12-08T10:17:48.304Z,4.70
2022-12-08T10:20:25.912Z,3.90
2022-12-08T10:23:08.138Z,3.57
2022-12-08T10:25:51.681Z,3.70
2022-12-08T10:28:24.561Z,3.03
2022-12-08T10:30:57.591Z,3.33
2022-12-08T10:33:34.148Z,3.53
2022-12-08T10:36:07.279Z,3.10
2022-12-08T10:38:40.761Z,3.40
2022-12-08T10:41:17.829Z,3.33
2022-12-08T10:43:54.069Z,3.03
2022-12-08T10:46:28.348Z,3.20
2022-12-08T10:49:07.570Z,2.90
2022-12-08T10:51:41.812Z,3.13
2022-12-08T10:54:28.668Z,3.03
2022-12-08T10:57:01.739Z,2.63
2022-12-08T10:59:34.620Z,2.90
2022-12-08T11:02:10.750Z,3.33
2022-12-08T11:04:43.836Z,3.60
2022-12-08T11:07:21.843Z,3.13
2022-12-08T11:09:58.003Z,2.83
2022-12-08T11:12:31.348Z,3.60
2022-12-08T11:15:05.346Z,3.47
2022-12-08T11:17:43.850Z,3.30
2022-12-08T11:20:22.137Z,3.20
2022-12-08T11:22:56.422Z,3.17
2022-12-08T11:25:29.432Z,3.00
2022-12-08T11:28:02.565Z,3.60
2022-12-08T11:30:38.404Z,3.00
2022-12-08T11:33:24.999Z,3.70
2022-12-08T11:36:03.985Z,3.00
2022-12-08T11:38:41.570Z,2.70
2022-12-08T11:41:19.562Z,3.07
2022-12-08T11:44:10.781Z,3.17
2022-12-08T11:46:47.076Z,3.13
2022-12-08T11:49:20.634Z,3.10
2022-12-08T11:52:22.943Z,3.10
2022-12-08T11:55:03.366Z,7.13
2022-12-08T11:57:36.299Z,3.73
2022-12-08T12:00:14.492Z,2.97
2022-12-08T12:02:51.930Z,3.13
2022-12-08T12:08:39.095Z,2.27
2022-12-08T12:11:41.141Z,3.27
2022-12-08T12:14:32.901Z,2.67
2022-12-08T12:17:07.574Z,3.78
2022-12-08T12:19:40.948Z,3.43
2022-12-08T12:22:18.462Z,3.00
2022-12-08T12:24:53.135Z,2.97
2022-12-08T12:27:30.084Z,2.50
2022-12-08T12:30:07.159Z,2.23
2022-12-08T12:32:42.174Z,2.90
2022-12-08T12:35:18.063Z,7.33
2022-12-08T12:37:51.634Z,4.90
2022-12-08T12:40:26.732Z,3.47
2022-12-08T12:42:59.596Z,2.93
2022-12-08T12:45:33.562Z,2.97
2022-12-08T12:48:06.430Z,2.90
2022-12-08T12:50:39.357Z,3.40
2022-12-08T12:53:21.264Z,2.67
2022-12-08T12:56:02.214Z,3.27
2022-12-08T12:58:36.536Z,3.17
2022-12-08T13:01:12.567Z,3.00
2022-12-08T13:04:05.915Z,2.50
2022-12-08T13:06:43.745Z,3.50
2022-12-08T13:09:24.744Z,2.83
2022-12-08T13:12:01.716Z,3.00
2022-12-08T13:14:46.396Z,2.57
2022-12-08T13:17:30.003Z,3.00
2022-12-08T13:20:06.510Z,2.47
2022-12-08T13:22:55.461Z,2.57
2022-12-08T13:25:48.688Z,2.70
2022-12-08T13:28:23.158Z,2.83
2022-12-08T13:31:00.523Z,3.10
2022-12-08T13:33:38.806Z,2.37
2022-12-08T13:36:21.916Z,2.87
2022-12-08T13:38:56.555Z,3.33
2022-12-08T13:41:41.518Z,3.13
2022-12-08T13:47:33.805Z,3.00
2022-12-08T13:54:16.333Z,4.13
2022-12-08T13:59:08.150Z,3.00
2022-12-08T14:01:44.984Z,3.27
2022-12-08T14:04:54.541Z,2.73
2022-12-08T14:07:12.469Z,3.30
2022-12-08T14:09:46.590Z,3.58
2022-12-08T14:12:21.018Z,3.47
2022-12-08T14:15:04.218Z,3.63
2022-12-08T14:17:52.097Z,3.00
2022-12-08T14:20:25.157Z,2.80
2022-12-08T14:23:01.417Z,3.60
2022-12-08T14:25:36.157Z,2.93
2022-12-08T14:28:11.036Z,2.70
2022-12-08T14:30:44.072Z,2.90
2022-12-08T14:33:17.363Z,2.67
2022-12-08T14:35:52.062Z,2.63
2022-12-08T14:38:26.330Z,2.90
2022-12-08T14:41:03.991Z,2.93
2022-12-08T14:43:37.033Z,2.40
2022-12-08T14:46:20.709Z,3.33
2022-12-08T14:48:54.950Z,3.70
2022-12-08T14:51:29.919Z,3.07
2022-12-08T14:54:06.004Z,2.83
2022-12-08T14:56:39.011Z,3.00
2022-12-08T14:59:18.254Z,2.57
2022-12-08T15:01:52.505Z,2.10
2022-12-08T15:04:27.778Z,2.63
2022-12-08T15:07:00.804Z,2.83
2022-12-08T15:09:33.908Z,2.43
2022-12-08T15:12:24.689Z,2.83
2022-12-08T15:15:01.723Z,2.43
2022-12-08T15:17:40.710Z,3.20
2022-12-08T15:20:33.163Z,8.77
2022-12-08T15:23:15.772Z,4.40
2022-12-08T15:25:49.037Z,3.00
2022-12-08T15:28:29.285Z,2.87
2022-12-08T15:31:02.876Z,2.77
2022-12-08T15:33:37.178Z,3.00
2022-12-08T15:36:10.403Z,2.80
2022-12-08T15:38:43.574Z,2.87
2022-12-08T15:41:16.475Z,2.45
2022-12-08T15:43:49.509Z,2.70
2022-12-08T15:46:22.441Z,2.80
2022-12-08T15:48:58.224Z,2.83
2022-12-08T15:51:36.262Z,2.90
2022-12-08T15:54:09.283Z,2.50
2022-12-08T15:57:18.084Z,2.90
2022-12-08T15:59:43.608Z,2.80
2022-12-08T16:02:22.374Z,3.50
2022-12-08T16:07:52.884Z,2.90
2022-12-08T16:10:40.240Z,3.00
2022-12-08T16:13:56.865Z,3.10
2022-12-08T16:16:30.959Z,3.07
2022-12-08T16:19:03.901Z,2.93
2022-12-08T16:22:30.204Z,3.43
2022-12-08T16:24:29.851Z,3.40
2022-12-08T16:29:56.465Z,3.43
2022-12-08T16:32:29.425Z,3.30
2022-12-08T16:35:02.559Z,2.97
2022-12-08T16:37:35.630Z,3.20
2022-12-08T16:40:09.126Z,3.10
2022-12-08T16:42:49.895Z,3.77
2022-12-08T16:45:24.960Z,3.30
2022-12-08T16:47:59.013Z,2.70
2022-12-08T16:50:33.529Z,3.10
2022-12-08T16:53:10.935Z,2.80
2022-12-08T16:55:48.004Z,3.20
2022-12-08T16:58:20.977Z,3.20
2022-12-08T17:00:53.940Z,3.20
2022-12-08T17:03:26.882Z,3.67
2022-12-08T17:05:59.825Z,3.20
2022-12-08T17:08:32.815Z,3.37
2022-12-08T17:11:10.187Z,3.53
2022-12-08T17:13:43.094Z,3.67
2022-12-08T17:16:18.984Z,3.13
2022-12-08T17:18:53.402Z,3.27
2022-12-08T17:21:26.320Z,3.30
2022-12-08T17:24:02.613Z,3.33
2022-12-08T17:26:47.581Z,3.13
2022-12-08T17:29:20.853Z,3.30
2022-12-08T17:32:00.039Z,3.97
2022-12-08T17:34:38.780Z,3.30
2022-12-08T17:37:12.240Z,3.93
2022-12-08T17:39:45.336Z,3.03
2022-12-08T17:42:18.408Z,4.60
2022-12-08T17:44:51.339Z,3.70
2022-12-08T17:47:24.382Z,3.67
2022-12-08T17:49:57.775Z,3.70
2022-12-08T17:52:30.689Z,3.47
2022-12-08T17:55:03.631Z,3.37
2022-12-08T17:57:36.608Z,3.37
2022-12-08T18:00:11.396Z,4.13
2022-12-08T18:02:47.448Z,3.43
2022-12-08T18:05:20.563Z,3.47
2022-12-08T18:07:53.826Z,4.03
2022-12-08T18:10:26.814Z,4.50
2022-12-08T18:13:00.180Z,3.30
2022-12-08T18:15:37.553Z,4.33
2022-12-08T18:18:12.267Z,4.20
2022-12-08T18:20:45.200Z,3.90
2022-12-08T18:23:18.707Z,3.77
2022-12-08T18:25:51.613Z,3.80
2022-12-08T18:28:24.958Z,3.60
2022-12-08T18:30:57.949Z,3.47
2022-12-08T18:33:30.916Z,3.67
2022-12-08T18:36:07.586Z,3.60
2022-12-08T18:38:40.706Z,3.60
2022-12-08T18:41:14.768Z,3.53
2022-12-08T18:43:47.709Z,4.07
2022-12-08T18:46:20.770Z,5.13
2022-12-08T18:48:53.787Z,4.03
2022-12-08T18:51:26.710Z,3.80
2022-12-08T18:53:59.632Z,3.93
2022-12-08T18:56:33.648Z,3.67
2022-12-08T18:59:08.075Z,3.57
2022-12-08T19:01:41.160Z,4.07
2022-12-08T19:04:29.900Z,4.20
2022-12-08T19:07:04.275Z,4.30
2022-12-08T19:09:37.390Z,4.30
2022-12-08T19:12:12.901Z,3.93
2022-12-08T19:14:45.852Z,4.23
2022-12-08T19:17:18.735Z,4.93
2022-12-08T19:19:51.907Z,4.50
2022-12-08T19:22:24.872Z,4.27
2022-12-08T19:24:57.870Z,4.70
2022-12-08T19:27:30.907Z,4.53
2022-12-08T19:30:04.266Z,9.00
2022-12-08T19:32:37.423Z,16.17
2022-12-08T19:35:10.439Z,6.00
2022-12-08T19:37:43.855Z,3.93
2022-12-08T19:40:35.427Z,5.90
2022-12-08T19:43:33.860Z,4.57
2022-12-08T19:46:07.234Z,4.67
2022-12-08T19:48:40.473Z,4.83
2022-12-08T19:51:13.648Z,4.43
2022-12-08T19:53:48.012Z,5.70
2022-12-08T19:56:21.052Z,5.43
2022-12-08T19:58:53.969Z,3.90
2022-12-08T20:01:26.895Z,5.27
2022-12-08T20:03:59.991Z,4.47
2022-12-08T20:06:32.932Z,4.73
2022-12-08T20:09:06.573Z,4.30
2022-12-08T20:11:39.925Z,4.70
2022-12-08T20:14:12.887Z,4.27
2022-12-08T20:16:45.841Z,4.23
2022-12-08T20:19:19.155Z,4.33
2022-12-08T20:21:52.136Z,3.87
2022-12-08T20:24:25.080Z,4.10
2022-12-08T20:26:58.124Z,3.90
2022-12-08T20:29:30.996Z,3.77
2022-12-08T20:32:04.075Z,3.80
2022-12-08T20:34:37.151Z,4.33
2022-12-08T20:37:10.099Z,4.33
2022-12-08T20:39:43.091Z,4.00
2022-12-08T20:42:16.106Z,3.83
2022-12-08T20:44:49.017Z,4.10
2022-12-08T20:47:22.078Z,3.90
2022-12-08T20:49:55.161Z,3.57
2022-12-08T20:52:28.111Z,3.60
2022-12-08T20:55:01.144Z,3.60
2022-12-08T20:57:34.475Z,3.73
2022-12-08T21:00:08.426Z,3.90
2022-12-08T21:02:47.713Z,3.80
2022-12-08T21:05:23.094Z,3.70
2022-12-08T21:07:56.184Z,3.63
2022-12-08T21:10:29.214Z,3.83
2022-12-08T21:13:02.159Z,3.50
2022-12-08T21:15:35.605Z,3.63
2022-12-08T21:18:08.566Z,4.27
2022-12-08T21:20:41.737Z,3.90
2022-12-08T21:23:15.177Z,3.83
2022-12-08T21:25:48.215Z,4.07
2022-12-08T21:28:21.207Z,3.80
2022-12-08T21:30:54.298Z,3.97
2022-12-08T21:33:27.395Z,4.50
2022-12-08T21:36:09.441Z,4.00
2022-12-08T21:38:43.010Z,4.53
2022-12-08T21:41:38.001Z,5.35
2022-12-08T21:44:12.324Z,5.70
2022-12-08T21:46:45.448Z,4.40
2022-12-08T21:49:18.636Z,4.23
2022-12-08T21:51:51.644Z,4.10
2022-12-08T21:54:24.724Z,4.07
2022-12-08T21:56:57.758Z,3.57
2022-12-08T21:59:30.704Z,3.90
2022-12-08T22:02:03.783Z,5.25
2022-12-08T22:04:36.941Z,4.10
2022-12-08T22:07:10.135Z,3.53
2022-12-08T22:09:43.273Z,3.40
2022-12-08T22:12:16.827Z,3.07
2022-12-08T22:14:51.024Z,3.33
2022-12-08T22:17:24.213Z,3.30
2022-12-08T22:19:57.912Z,2.87
2022-12-08T22:22:32.573Z,3.47
2022-12-08T22:25:06.920Z,3.40
2022-12-08T22:27:40.453Z,3.10
2022-12-08T22:30:13.549Z,3.30
2022-12-08T22:32:46.714Z,3.20
2022-12-08T22:35:19.686Z,3.73
2022-12-08T22:37:52.588Z,3.20
2022-12-08T22:40:25.530Z,3.57
2022-12-08T22:42:58.414Z,3.27
2022-12-08T22:45:31.323Z,3.03
2022-12-08T22:48:04.558Z,3.03
2022-12-08T22:50:37.768Z,2.73
2022-12-08T22:53:12.795Z,3.60
2022-12-08T22:55:46.505Z,3.00
2022-12-08T22:58:19.885Z,3.30
2022-12-08T23:00:52.896Z,4.07
2022-12-08T23:03:25.949Z,3.97
2022-12-08T23:05:59.371Z,3.77
2022-12-08T23:08:32.643Z,3.40
2022-12-08T23:11:05.714Z,3.93
2022-12-08T23:13:39.837Z,3.90
2022-12-08T23:16:13.241Z,3.30
2022-12-08T23:18:46.890Z,3.57
2022-12-08T23:21:20.775Z,3.30
2022-12-08T23:23:53.977Z,3.93
2022-12-08T23:26:28.116Z,3.13
2022-12-08T23:29:01.698Z,3.80
2022-12-08T23:31:34.839Z,4.33
2022-12-08T23:34:08.050Z,4.03
2022-12-08T23:36:41.004Z,3.87
2022-12-08T23:39:14.082Z,4.47
2022-12-08T23:41:47.194Z,4.20
2022-12-08T23:44:20.257Z,4.13
2022-12-08T23:46:53.310Z,5.20
2022-12-08T23:49:26.346Z,4.30
2022-12-08T23:51:59.517Z,4.03
2022-12-08T23:54:32.769Z,4.10
2022-12-08T23:57:05.993Z,3.77
2022-12-08T23:59:39.229Z,3.77
